sensor_id;sensor_type;location;lat;lon;timestamp;P1;durP1;ratioP1;P2;durP2;ratioP2
52564;SDS011;38460;53.106;7.004;2023-05-24T00:01:37;17.40;;;5.95;;
52564;SDS011;38460;53.106;7.004;2023-05-24T00:04:06;19.90;;;5.63;;
52564;SDS011;38460;53.106;7.004;2023-05-24T00:06:32;18.88;;;6.53;;
52564;SDS011;38460;53.106;7.004;2023-05-24T00:09:02;14.27;;;5.75;;
52564;SDS011;38460;53.106;7.004;2023-05-24T00:11:28;14.93;;;5.53;;
52564;SDS011;38460;53.106;7.004;2023-05-24T00:13:54;12.48;;;5.20;;
52564;SDS011;38460;53.106;7.004;2023-05-24T00:16:19;23.60;;;6.68;;
52564;SDS011;38460;53.106;7.004;2023-05-24T00:18:45;20.33;;;5.68;;
52564;SDS011;38460;53.106;7.004;2023-05-24T00:21:12;22.63;;;5.95;;
52564;SDS011;38460;53.106;7.004;2023-05-24T00:23:38;20.60;;;6.57;;
52564;SDS011;38460;53.106;7.004;2023-05-24T00:26:06;15.85;;;5.35;;
52564;SDS011;38460;53.106;7.004;2023-05-24T00:28:32;17.60;;;5.78;;
52564;SDS011;38460;53.106;7.004;2023-05-24T00:30:58;15.48;;;5.65;;
52564;SDS011;38460;53.106;7.004;2023-05-24T00:33:24;20.70;;;5.55;;
52564;SDS011;38460;53.106;7.004;2023-05-24T00:35:51;18.77;;;6.25;;
52564;SDS011;38460;53.106;7.004;2023-05-24T00:38:23;17.80;;;5.72;;
52564;SDS011;38460;53.106;7.004;2023-05-24T00:40:50;17.40;;;6.50;;
52564;SDS011;38460;53.106;7.004;2023-05-24T00:43:16;15.07;;;5.78;;
52564;SDS011;38460;53.106;7.004;2023-05-24T00:45:43;18.95;;;6.18;;
52564;SDS011;38460;53.106;7.004;2023-05-24T00:48:08;12.07;;;4.97;;
52564;SDS011;38460;53.106;7.004;2023-05-24T00:50:38;13.82;;;5.07;;
52564;SDS011;38460;53.106;7.004;2023-05-24T00:53:05;16.67;;;5.82;;
52564;SDS011;38460;53.106;7.004;2023-05-24T00:55:32;15.65;;;5.50;;
52564;SDS011;38460;53.106;7.004;2023-05-24T00:58:00;20.75;;;7.50;;
52564;SDS011;38460;53.106;7.004;2023-05-24T01:00:26;14.32;;;5.90;;
52564;SDS011;38460;53.106;7.004;2023-05-24T01:02:54;18.80;;;5.68;;
52564;SDS011;38460;53.106;7.004;2023-05-24T01:05:20;24.25;;;6.32;;
52564;SDS011;38460;53.106;7.004;2023-05-24T01:10:50;19.35;;;6.63;;
52564;SDS011;38460;53.106;7.004;2023-05-24T01:14:01;18.67;;;5.93;;
52564;SDS011;38460;53.106;7.004;2023-05-24T01:16:31;16.10;;;6.25;;
52564;SDS011;38460;53.106;7.004;2023-05-24T01:19:19;18.20;;;6.82;;
52564;SDS011;38460;53.106;7.004;2023-05-24T01:22:07;14.02;;;6.07;;
52564;SDS011;38460;53.106;7.004;2023-05-24T01:25:03;21.13;;;6.15;;
52564;SDS011;38460;53.106;7.004;2023-05-24T01:27:46;19.10;;;7.60;;
52564;SDS011;38460;53.106;7.004;2023-05-24T01:30:12;20.00;;;6.93;;
52564;SDS011;38460;53.106;7.004;2023-05-24T01:32:38;20.63;;;6.70;;
52564;SDS011;38460;53.106;7.004;2023-05-24T01:35:04;20.00;;;6.88;;
52564;SDS011;38460;53.106;7.004;2023-05-24T01:37:30;15.40;;;5.93;;
52564;SDS011;38460;53.106;7.004;2023-05-24T01:39:56;14.85;;;5.95;;
52564;SDS011;38460;53.106;7.004;2023-05-24T01:42:23;14.57;;;6.47;;
52564;SDS011;38460;53.106;7.004;2023-05-24T01:45:02;18.58;;;6.18;;
52564;SDS011;38460;53.106;7.004;2023-05-24T01:50:16;18.58;;;7.10;;
52564;SDS011;38460;53.106;7.004;2023-05-24T01:52:53;21.05;;;6.05;;
52564;SDS011;38460;53.106;7.004;2023-05-24T01:55:21;19.02;;;5.85;;
52564;SDS011;38460;53.106;7.004;2023-05-24T01:57:49;19.02;;;6.53;;
52564;SDS011;38460;53.106;7.004;2023-05-24T02:00:16;18.40;;;5.97;;
52564;SDS011;38460;53.106;7.004;2023-05-24T02:02:43;24.23;;;6.82;;
52564;SDS011;38460;53.106;7.004;2023-05-24T02:05:09;17.42;;;6.28;;
52564;SDS011;38460;53.106;7.004;2023-05-24T02:07:38;15.55;;;6.68;;
52564;SDS011;38460;53.106;7.004;2023-05-24T02:10:05;21.05;;;6.47;;
52564;SDS011;38460;53.106;7.004;2023-05-24T02:12:31;13.00;;;5.38;;
52564;SDS011;38460;53.106;7.004;2023-05-24T02:14:57;21.83;;;6.60;;
52564;SDS011;38460;53.106;7.004;2023-05-24T02:17:24;20.17;;;6.25;;
52564;SDS011;38460;53.106;7.004;2023-05-24T02:19:51;15.07;;;6.63;;
52564;SDS011;38460;53.106;7.004;2023-05-24T02:22:17;18.90;;;6.68;;
52564;SDS011;38460;53.106;7.004;2023-05-24T02:24:42;25.67;;;6.55;;
52564;SDS011;38460;53.106;7.004;2023-05-24T02:27:08;14.63;;;6.20;;
52564;SDS011;38460;53.106;7.004;2023-05-24T02:29:34;19.73;;;6.95;;
52564;SDS011;38460;53.106;7.004;2023-05-24T02:32:01;16.75;;;5.43;;
52564;SDS011;38460;53.106;7.004;2023-05-24T02:34:26;21.70;;;7.45;;
52564;SDS011;38460;53.106;7.004;2023-05-24T02:36:52;22.67;;;7.72;;
52564;SDS011;38460;53.106;7.004;2023-05-24T02:39:21;16.92;;;6.35;;
52564;SDS011;38460;53.106;7.004;2023-05-24T02:41:46;21.85;;;7.70;;
52564;SDS011;38460;53.106;7.004;2023-05-24T02:44:12;18.13;;;6.20;;
52564;SDS011;38460;53.106;7.004;2023-05-24T02:46:38;19.42;;;7.28;;
52564;SDS011;38460;53.106;7.004;2023-05-24T02:49:03;26.30;;;7.60;;
52564;SDS011;38460;53.106;7.004;2023-05-24T02:51:29;20.17;;;7.30;;
52564;SDS011;38460;53.106;7.004;2023-05-24T02:53:57;21.23;;;6.70;;
52564;SDS011;38460;53.106;7.004;2023-05-24T02:56:23;19.40;;;5.80;;
52564;SDS011;38460;53.106;7.004;2023-05-24T02:58:50;19.38;;;6.43;;
52564;SDS011;38460;53.106;7.004;2023-05-24T03:01:18;20.05;;;6.55;;
52564;SDS011;38460;53.106;7.004;2023-05-24T03:03:45;19.27;;;6.20;;
52564;SDS011;38460;53.106;7.004;2023-05-24T03:06:10;14.10;;;6.07;;
52564;SDS011;38460;53.106;7.004;2023-05-24T03:08:38;14.90;;;6.22;;
52564;SDS011;38460;53.106;7.004;2023-05-24T03:11:04;16.45;;;6.03;;
52564;SDS011;38460;53.106;7.004;2023-05-24T03:13:30;15.35;;;7.20;;
52564;SDS011;38460;53.106;7.004;2023-05-24T03:15:56;17.42;;;5.55;;
52564;SDS011;38460;53.106;7.004;2023-05-24T03:18:22;16.63;;;5.43;;
52564;SDS011;38460;53.106;7.004;2023-05-24T03:20:47;16.17;;;6.53;;
52564;SDS011;38460;53.106;7.004;2023-05-24T03:23:13;18.30;;;6.80;;
52564;SDS011;38460;53.106;7.004;2023-05-24T03:25:39;22.02;;;5.93;;
52564;SDS011;38460;53.106;7.004;2023-05-24T03:28:05;11.95;;;5.55;;
52564;SDS011;38460;53.106;7.004;2023-05-24T03:30:31;20.42;;;5.68;;
52564;SDS011;38460;53.106;7.004;2023-05-24T03:32:58;13.15;;;5.20;;
52564;SDS011;38460;53.106;7.004;2023-05-24T03:35:24;15.80;;;5.80;;
52564;SDS011;38460;53.106;7.004;2023-05-24T03:37:49;11.68;;;5.18;;
52564;SDS011;38460;53.106;7.004;2023-05-24T03:40:15;15.88;;;4.60;;
52564;SDS011;38460;53.106;7.004;2023-05-24T03:42:41;13.63;;;4.80;;
52564;SDS011;38460;53.106;7.004;2023-05-24T03:45:07;14.68;;;5.03;;
52564;SDS011;38460;53.106;7.004;2023-05-24T03:47:33;12.25;;;4.50;;
52564;SDS011;38460;53.106;7.004;2023-05-24T03:49:59;15.48;;;4.68;;
52564;SDS011;38460;53.106;7.004;2023-05-24T03:52:25;12.82;;;5.25;;
52564;SDS011;38460;53.106;7.004;2023-05-24T03:54:50;14.43;;;5.15;;
52564;SDS011;38460;53.106;7.004;2023-05-24T03:57:16;10.93;;;4.60;;
52564;SDS011;38460;53.106;7.004;2023-05-24T03:59:42;12.48;;;4.43;;
52564;SDS011;38460;53.106;7.004;2023-05-24T04:02:08;16.15;;;4.65;;
52564;SDS011;38460;53.106;7.004;2023-05-24T04:04:33;18.92;;;5.72;;
52564;SDS011;38460;53.106;7.004;2023-05-24T04:07:01;12.80;;;4.95;;
52564;SDS011;38460;53.106;7.004;2023-05-24T04:09:27;14.30;;;5.18;;
52564;SDS011;38460;53.106;7.004;2023-05-24T04:11:52;13.65;;;5.13;;
52564;SDS011;38460;53.106;7.004;2023-05-24T04:14:18;14.82;;;4.97;;
52564;SDS011;38460;53.106;7.004;2023-05-24T04:16:44;18.38;;;5.63;;
52564;SDS011;38460;53.106;7.004;2023-05-24T04:19:10;19.73;;;5.20;;
52564;SDS011;38460;53.106;7.004;2023-05-24T04:21:36;16.33;;;4.97;;
52564;SDS011;38460;53.106;7.004;2023-05-24T04:24:03;10.95;;;4.78;;
52564;SDS011;38460;53.106;7.004;2023-05-24T04:26:29;12.60;;;4.88;;
52564;SDS011;38460;53.106;7.004;2023-05-24T04:28:55;11.93;;;4.20;;
52564;SDS011;38460;53.106;7.004;2023-05-24T04:31:21;10.32;;;4.47;;
52564;SDS011;38460;53.106;7.004;2023-05-24T04:33:47;17.17;;;5.57;;
52564;SDS011;38460;53.106;7.004;2023-05-24T04:36:14;11.73;;;4.30;;
52564;SDS011;38460;53.106;7.004;2023-05-24T04:38:41;14.40;;;4.10;;
52564;SDS011;38460;53.106;7.004;2023-05-24T04:41:09;17.30;;;4.93;;
52564;SDS011;38460;53.106;7.004;2023-05-24T04:43:36;14.18;;;4.90;;
52564;SDS011;38460;53.106;7.004;2023-05-24T04:46:03;15.60;;;4.65;;
52564;SDS011;38460;53.106;7.004;2023-05-24T04:48:28;8.63;;;4.20;;
52564;SDS011;38460;53.106;7.004;2023-05-24T04:50:55;20.98;;;5.18;;
52564;SDS011;38460;53.106;7.004;2023-05-24T04:53:22;13.13;;;4.22;;
52564;SDS011;38460;53.106;7.004;2023-05-24T04:55:48;12.57;;;4.75;;
52564;SDS011;38460;53.106;7.004;2023-05-24T04:58:15;12.10;;;4.63;;
52564;SDS011;38460;53.106;7.004;2023-05-24T05:00:41;18.05;;;4.78;;
52564;SDS011;38460;53.106;7.004;2023-05-24T05:03:07;16.23;;;4.30;;
52564;SDS011;38460;53.106;7.004;2023-05-24T05:05:33;19.23;;;6.05;;
52564;SDS011;38460;53.106;7.004;2023-05-24T05:08:00;16.77;;;5.28;;
52564;SDS011;38460;53.106;7.004;2023-05-24T05:10:26;13.70;;;4.70;;
52564;SDS011;38460;53.106;7.004;2023-05-24T05:12:52;16.38;;;5.30;;
52564;SDS011;38460;53.106;7.004;2023-05-24T05:15:21;15.82;;;4.78;;
52564;SDS011;38460;53.106;7.004;2023-05-24T05:17:48;15.15;;;5.10;;
52564;SDS011;38460;53.106;7.004;2023-05-24T05:20:14;14.10;;;5.13;;
52564;SDS011;38460;53.106;7.004;2023-05-24T05:22:46;18.35;;;4.78;;
52564;SDS011;38460;53.106;7.004;2023-05-24T05:25:12;17.80;;;5.57;;
52564;SDS011;38460;53.106;7.004;2023-05-24T05:27:38;14.77;;;5.07;;
52564;SDS011;38460;53.106;7.004;2023-05-24T05:30:04;16.83;;;5.55;;
52564;SDS011;38460;53.106;7.004;2023-05-24T05:32:30;11.90;;;4.80;;
52564;SDS011;38460;53.106;7.004;2023-05-24T05:34:56;16.48;;;4.40;;
52564;SDS011;38460;53.106;7.004;2023-05-24T05:37:22;15.10;;;5.93;;
52564;SDS011;38460;53.106;7.004;2023-05-24T05:39:48;13.32;;;4.72;;
52564;SDS011;38460;53.106;7.004;2023-05-24T05:42:13;13.18;;;4.18;;
52564;SDS011;38460;53.106;7.004;2023-05-24T05:44:39;15.88;;;4.38;;
52564;SDS011;38460;53.106;7.004;2023-05-24T05:47:05;14.73;;;4.07;;
52564;SDS011;38460;53.106;7.004;2023-05-24T05:49:32;11.98;;;4.15;;
52564;SDS011;38460;53.106;7.004;2023-05-24T05:52:00;11.10;;;4.53;;
52564;SDS011;38460;53.106;7.004;2023-05-24T05:54:27;17.98;;;5.47;;
52564;SDS011;38460;53.106;7.004;2023-05-24T05:56:53;12.75;;;4.30;;
52564;SDS011;38460;53.106;7.004;2023-05-24T05:59:18;9.38;;;3.78;;
52564;SDS011;38460;53.106;7.004;2023-05-24T06:01:46;13.35;;;4.05;;
52564;SDS011;38460;53.106;7.004;2023-05-24T06:04:14;17.40;;;6.18;;
52564;SDS011;38460;53.106;7.004;2023-05-24T06:06:40;12.57;;;4.30;;
52564;SDS011;38460;53.106;7.004;2023-05-24T06:09:06;15.45;;;4.97;;
52564;SDS011;38460;53.106;7.004;2023-05-24T06:11:32;12.88;;;4.60;;
52564;SDS011;38460;53.106;7.004;2023-05-24T06:13:58;15.23;;;4.68;;
52564;SDS011;38460;53.106;7.004;2023-05-24T06:16:24;17.85;;;4.95;;
52564;SDS011;38460;53.106;7.004;2023-05-24T06:18:50;15.57;;;4.30;;
52564;SDS011;38460;53.106;7.004;2023-05-24T06:21:15;14.13;;;4.90;;
52564;SDS011;38460;53.106;7.004;2023-05-24T06:23:41;18.65;;;4.88;;
52564;SDS011;38460;53.106;7.004;2023-05-24T06:26:08;18.85;;;6.13;;
52564;SDS011;38460;53.106;7.004;2023-05-24T06:28:37;15.50;;;4.55;;
52564;SDS011;38460;53.106;7.004;2023-05-24T06:31:03;25.92;;;5.53;;
52564;SDS011;38460;53.106;7.004;2023-05-24T06:33:30;14.15;;;4.88;;
52564;SDS011;38460;53.106;7.004;2023-05-24T06:35:58;15.77;;;4.88;;
52564;SDS011;38460;53.106;7.004;2023-05-24T06:38:24;13.95;;;4.63;;
52564;SDS011;38460;53.106;7.004;2023-05-24T06:40:51;25.38;;;4.60;;
52564;SDS011;38460;53.106;7.004;2023-05-24T06:43:17;15.27;;;4.30;;
52564;SDS011;38460;53.106;7.004;2023-05-24T06:45:44;16.63;;;3.90;;
52564;SDS011;38460;53.106;7.004;2023-05-24T06:48:10;17.70;;;4.70;;
52564;SDS011;38460;53.106;7.004;2023-05-24T06:50:36;11.15;;;4.22;;
52564;SDS011;38460;53.106;7.004;2023-05-24T06:53:02;16.55;;;5.10;;
52564;SDS011;38460;53.106;7.004;2023-05-24T06:55:28;12.45;;;4.30;;
52564;SDS011;38460;53.106;7.004;2023-05-24T06:57:54;21.02;;;5.82;;
52564;SDS011;38460;53.106;7.004;2023-05-24T07:00:19;10.20;;;3.50;;
52564;SDS011;38460;53.106;7.004;2023-05-24T07:02:46;15.23;;;4.57;;
52564;SDS011;38460;53.106;7.004;2023-05-24T07:05:12;12.43;;;4.63;;
52564;SDS011;38460;53.106;7.004;2023-05-24T07:07:38;9.02;;;3.60;;
52564;SDS011;38460;53.106;7.004;2023-05-24T07:10:05;12.80;;;4.35;;
52564;SDS011;38460;53.106;7.004;2023-05-24T07:12:32;15.20;;;4.40;;
52564;SDS011;38460;53.106;7.004;2023-05-24T07:14:58;10.77;;;4.07;;
52564;SDS011;38460;53.106;7.004;2023-05-24T07:17:23;11.43;;;3.60;;
52564;SDS011;38460;53.106;7.004;2023-05-24T07:19:49;9.38;;;3.63;;
52564;SDS011;38460;53.106;7.004;2023-05-24T07:22:15;14.52;;;3.85;;
52564;SDS011;38460;53.106;7.004;2023-05-24T07:24:41;9.48;;;3.55;;
52564;SDS011;38460;53.106;7.004;2023-05-24T07:27:06;9.73;;;3.75;;
52564;SDS011;38460;53.106;7.004;2023-05-24T07:29:32;11.30;;;3.63;;
52564;SDS011;38460;53.106;7.004;2023-05-24T07:31:58;9.38;;;3.47;;
52564;SDS011;38460;53.106;7.004;2023-05-24T07:34:26;9.00;;;3.35;;
52564;SDS011;38460;53.106;7.004;2023-05-24T07:36:54;7.80;;;3.20;;
52564;SDS011;38460;53.106;7.004;2023-05-24T07:39:23;18.98;;;4.55;;
52564;SDS011;38460;53.106;7.004;2023-05-24T07:41:49;10.20;;;3.47;;
52564;SDS011;38460;53.106;7.004;2023-05-24T07:44:15;9.70;;;3.78;;
52564;SDS011;38460;53.106;7.004;2023-05-24T07:46:41;9.45;;;3.22;;
52564;SDS011;38460;53.106;7.004;2023-05-24T07:49:06;10.30;;;3.60;;
52564;SDS011;38460;53.106;7.004;2023-05-24T07:51:32;9.23;;;3.67;;
52564;SDS011;38460;53.106;7.004;2023-05-24T07:53:58;10.25;;;3.53;;
52564;SDS011;38460;53.106;7.004;2023-05-24T07:56:24;6.75;;;3.60;;
52564;SDS011;38460;53.106;7.004;2023-05-24T07:58:50;12.52;;;3.75;;
52564;SDS011;38460;53.106;7.004;2023-05-24T08:01:16;10.85;;;3.67;;
52564;SDS011;38460;53.106;7.004;2023-05-24T08:03:45;9.82;;;3.95;;
52564;SDS011;38460;53.106;7.004;2023-05-24T08:06:11;9.27;;;3.42;;
52564;SDS011;38460;53.106;7.004;2023-05-24T08:08:37;8.45;;;3.47;;
52564;SDS011;38460;53.106;7.004;2023-05-24T08:11:04;10.57;;;3.30;;
52564;SDS011;38460;53.106;7.004;2023-05-24T08:13:32;9.65;;;3.70;;
52564;SDS011;38460;53.106;7.004;2023-05-24T08:15:58;7.82;;;3.08;;
52564;SDS011;38460;53.106;7.004;2023-05-24T08:18:24;15.02;;;3.35;;
52564;SDS011;38460;53.106;7.004;2023-05-24T08:20:49;6.95;;;3.22;;
52564;SDS011;38460;53.106;7.004;2023-05-24T08:23:16;10.57;;;3.72;;
52564;SDS011;38460;53.106;7.004;2023-05-24T08:25:41;10.10;;;3.88;;
52564;SDS011;38460;53.106;7.004;2023-05-24T08:28:07;9.80;;;3.38;;
52564;SDS011;38460;53.106;7.004;2023-05-24T08:30:34;8.60;;;3.15;;
52564;SDS011;38460;53.106;7.004;2023-05-24T08:33:01;6.97;;;3.28;;
52564;SDS011;38460;53.106;7.004;2023-05-24T08:35:27;11.07;;;4.03;;
52564;SDS011;38460;53.106;7.004;2023-05-24T08:37:53;9.70;;;3.20;;
52564;SDS011;38460;53.106;7.004;2023-05-24T08:40:19;8.95;;;3.10;;
52564;SDS011;38460;53.106;7.004;2023-05-24T08:42:44;9.85;;;3.22;;
52564;SDS011;38460;53.106;7.004;2023-05-24T08:45:12;7.05;;;3.35;;
52564;SDS011;38460;53.106;7.004;2023-05-24T08:47:39;9.55;;;3.17;;
52564;SDS011;38460;53.106;7.004;2023-05-24T08:50:05;9.35;;;2.83;;
52564;SDS011;38460;53.106;7.004;2023-05-24T08:52:32;9.52;;;3.95;;
52564;SDS011;38460;53.106;7.004;2023-05-24T08:54:58;8.77;;;2.72;;
52564;SDS011;38460;53.106;7.004;2023-05-24T08:57:25;8.75;;;3.38;;
52564;SDS011;38460;53.106;7.004;2023-05-24T08:59:51;8.90;;;3.45;;
52564;SDS011;38460;53.106;7.004;2023-05-24T09:02:21;9.98;;;3.10;;
52564;SDS011;38460;53.106;7.004;2023-05-24T09:04:47;9.02;;;3.05;;
52564;SDS011;38460;53.106;7.004;2023-05-24T09:07:16;10.50;;;3.22;;
52564;SDS011;38460;53.106;7.004;2023-05-24T09:10:06;10.38;;;4.07;;
52564;SDS011;38460;53.106;7.004;2023-05-24T09:12:31;10.07;;;3.63;;
52564;SDS011;38460;53.106;7.004;2023-05-24T09:14:58;8.15;;;3.33;;
52564;SDS011;38460;53.106;7.004;2023-05-24T09:17:24;7.97;;;3.20;;
52564;SDS011;38460;53.106;7.004;2023-05-24T09:19:51;12.30;;;3.40;;
52564;SDS011;38460;53.106;7.004;2023-05-24T09:22:17;12.32;;;4.05;;
52564;SDS011;38460;53.106;7.004;2023-05-24T09:24:48;9.77;;;4.03;;
52564;SDS011;38460;53.106;7.004;2023-05-24T09:27:14;9.23;;;3.50;;
52564;SDS011;38460;53.106;7.004;2023-05-24T09:29:49;8.90;;;2.90;;
52564;SDS011;38460;53.106;7.004;2023-05-24T09:32:19;7.25;;;3.65;;
52564;SDS011;38460;53.106;7.004;2023-05-24T09:34:49;6.25;;;3.13;;
52564;SDS011;38460;53.106;7.004;2023-05-24T09:37:17;6.88;;;3.08;;
52564;SDS011;38460;53.106;7.004;2023-05-24T09:39:45;8.07;;;3.15;;
52564;SDS011;38460;53.106;7.004;2023-05-24T09:42:21;11.50;;;3.08;;
52564;SDS011;38460;53.106;7.004;2023-05-24T09:45:00;10.63;;;3.38;;
52564;SDS011;38460;53.106;7.004;2023-05-24T09:47:36;8.55;;;3.38;;
52564;SDS011;38460;53.106;7.004;2023-05-24T09:50:04;12.48;;;3.42;;
52564;SDS011;38460;53.106;7.004;2023-05-24T09:52:35;9.85;;;3.20;;
52564;SDS011;38460;53.106;7.004;2023-05-24T09:55:17;9.48;;;3.60;;
52564;SDS011;38460;53.106;7.004;2023-05-24T09:57:51;10.70;;;3.63;;
52564;SDS011;38460;53.106;7.004;2023-05-24T10:00:28;8.90;;;3.38;;
52564;SDS011;38460;53.106;7.004;2023-05-24T10:03:00;14.07;;;3.58;;
52564;SDS011;38460;53.106;7.004;2023-05-24T10:05:28;14.80;;;4.13;;
52564;SDS011;38460;53.106;7.004;2023-05-24T10:07:54;10.48;;;3.75;;
52564;SDS011;38460;53.106;7.004;2023-05-24T10:10:30;9.15;;;4.43;;
52564;SDS011;38460;53.106;7.004;2023-05-24T10:12:57;8.90;;;3.95;;
52564;SDS011;38460;53.106;7.004;2023-05-24T10:15:24;11.43;;;3.55;;
52564;SDS011;38460;53.106;7.004;2023-05-24T10:17:52;11.75;;;3.90;;
52564;SDS011;38460;53.106;7.004;2023-05-24T10:20:18;9.70;;;3.90;;
52564;SDS011;38460;53.106;7.004;2023-05-24T10:22:45;7.38;;;3.30;;
52564;SDS011;38460;53.106;7.004;2023-05-24T10:25:16;9.30;;;3.67;;
52564;SDS011;38460;53.106;7.004;2023-05-24T10:27:47;10.93;;;3.67;;
52564;SDS011;38460;53.106;7.004;2023-05-24T10:33:02;6.30;;;3.28;;
52564;SDS011;38460;53.106;7.004;2023-05-24T10:35:30;9.38;;;4.57;;
52564;SDS011;38460;53.106;7.004;2023-05-24T10:37:57;9.18;;;3.55;;
52564;SDS011;38460;53.106;7.004;2023-05-24T10:40:23;9.20;;;3.70;;
52564;SDS011;38460;53.106;7.004;2023-05-24T10:42:50;13.52;;;4.28;;
52564;SDS011;38460;53.106;7.004;2023-05-24T10:47:47;10.57;;;2.97;;
52564;SDS011;38460;53.106;7.004;2023-05-24T10:50:16;18.58;;;5.78;;
52564;SDS011;38460;53.106;7.004;2023-05-24T10:52:43;7.72;;;3.35;;
52564;SDS011;38460;53.106;7.004;2023-05-24T10:55:09;11.27;;;4.43;;
52564;SDS011;38460;53.106;7.004;2023-05-24T10:57:36;14.88;;;3.90;;
52564;SDS011;38460;53.106;7.004;2023-05-24T11:02:49;9.55;;;4.38;;
52564;SDS011;38460;53.106;7.004;2023-05-24T11:05:23;12.80;;;3.72;;
52564;SDS011;38460;53.106;7.004;2023-05-24T11:07:49;10.27;;;3.60;;
52564;SDS011;38460;53.106;7.004;2023-05-24T11:10:30;8.30;;;4.00;;
52564;SDS011;38460;53.106;7.004;2023-05-24T11:12:56;7.10;;;3.58;;
52564;SDS011;38460;53.106;7.004;2023-05-24T11:15:25;8.32;;;3.50;;
52564;SDS011;38460;53.106;7.004;2023-05-24T11:20:38;9.02;;;3.55;;
52564;SDS011;38460;53.106;7.004;2023-05-24T11:23:14;8.25;;;3.13;;
52564;SDS011;38460;53.106;7.004;2023-05-24T11:25:40;7.20;;;3.60;;
52564;SDS011;38460;53.106;7.004;2023-05-24T11:28:10;7.22;;;3.05;;
52564;SDS011;38460;53.106;7.004;2023-05-24T11:33:15;7.78;;;2.80;;
52564;SDS011;38460;53.106;7.004;2023-05-24T11:35:46;11.00;;;3.58;;
52564;SDS011;38460;53.106;7.004;2023-05-24T11:38:14;9.95;;;3.30;;
52564;SDS011;38460;53.106;7.004;2023-05-24T11:40:41;12.35;;;3.72;;
52564;SDS011;38460;53.106;7.004;2023-05-24T11:43:15;7.80;;;3.50;;
52564;SDS011;38460;53.106;7.004;2023-05-24T11:45:43;8.85;;;4.18;;
52564;SDS011;38460;53.106;7.004;2023-05-24T11:48:10;7.47;;;2.95;;
52564;SDS011;38460;53.106;7.004;2023-05-24T11:50:41;7.45;;;3.13;;
52564;SDS011;38460;53.106;7.004;2023-05-24T11:53:19;10.70;;;3.38;;
52564;SDS011;38460;53.106;7.004;2023-05-24T11:55:45;10.18;;;2.95;;
52564;SDS011;38460;53.106;7.004;2023-05-24T12:00:41;8.00;;;2.80;;
52564;SDS011;38460;53.106;7.004;2023-05-24T12:03:07;7.93;;;3.40;;
52564;SDS011;38460;53.106;7.004;2023-05-24T12:05:33;8.38;;;2.90;;
52564;SDS011;38460;53.106;7.004;2023-05-24T12:08:05;6.68;;;3.20;;
52564;SDS011;38460;53.106;7.004;2023-05-24T12:10:35;12.30;;;3.67;;
52564;SDS011;38460;53.106;7.004;2023-05-24T12:13:02;7.30;;;3.10;;
52564;SDS011;38460;53.106;7.004;2023-05-24T12:15:29;9.35;;;3.28;;
52564;SDS011;38460;53.106;7.004;2023-05-24T12:17:55;10.02;;;2.85;;
52564;SDS011;38460;53.106;7.004;2023-05-24T12:20:22;10.32;;;3.45;;
52564;SDS011;38460;53.106;7.004;2023-05-24T12:22:49;7.20;;;2.67;;
52564;SDS011;38460;53.106;7.004;2023-05-24T12:25:20;14.90;;;3.90;;
52564;SDS011;38460;53.106;7.004;2023-05-24T12:27:51;6.90;;;3.25;;
52564;SDS011;38460;53.106;7.004;2023-05-24T12:30:23;7.20;;;3.35;;
52564;SDS011;38460;53.106;7.004;2023-05-24T12:32:52;10.20;;;3.20;;
52564;SDS011;38460;53.106;7.004;2023-05-24T12:35:19;11.95;;;3.97;;
52564;SDS011;38460;53.106;7.004;2023-05-24T12:37:45;7.47;;;2.97;;
52564;SDS011;38460;53.106;7.004;2023-05-24T12:40:16;7.20;;;3.25;;
52564;SDS011;38460;53.106;7.004;2023-05-24T12:42:45;9.02;;;3.53;;
52564;SDS011;38460;53.106;7.004;2023-05-24T12:45:15;8.40;;;2.85;;
52564;SDS011;38460;53.106;7.004;2023-05-24T12:47:49;6.35;;;2.58;;
52564;SDS011;38460;53.106;7.004;2023-05-24T12:50:19;8.27;;;3.55;;
52564;SDS011;38460;53.106;7.004;2023-05-24T12:52:46;10.45;;;3.13;;
52564;SDS011;38460;53.106;7.004;2023-05-24T12:55:15;7.20;;;2.95;;
52564;SDS011;38460;53.106;7.004;2023-05-24T12:57:41;10.95;;;3.85;;
52564;SDS011;38460;53.106;7.004;2023-05-24T13:00:10;9.13;;;3.30;;
52564;SDS011;38460;53.106;7.004;2023-05-24T13:02:37;19.63;;;4.47;;
52564;SDS011;38460;53.106;7.004;2023-05-24T13:05:05;8.43;;;3.70;;
52564;SDS011;38460;53.106;7.004;2023-05-24T13:07:32;8.90;;;3.67;;
52564;SDS011;38460;53.106;7.004;2023-05-24T13:09:57;11.05;;;3.58;;
52564;SDS011;38460;53.106;7.004;2023-05-24T13:12:24;8.73;;;3.30;;
52564;SDS011;38460;53.106;7.004;2023-05-24T13:14:51;11.40;;;3.80;;
52564;SDS011;38460;53.106;7.004;2023-05-24T13:17:17;8.70;;;3.13;;
52564;SDS011;38460;53.106;7.004;2023-05-24T13:19:44;11.57;;;3.67;;
52564;SDS011;38460;53.106;7.004;2023-05-24T13:22:11;10.48;;;4.43;;
52564;SDS011;38460;53.106;7.004;2023-05-24T13:24:37;8.80;;;3.65;;
52564;SDS011;38460;53.106;7.004;2023-05-24T13:27:02;12.38;;;3.90;;
52564;SDS011;38460;53.106;7.004;2023-05-24T13:29:29;7.93;;;2.95;;
52564;SDS011;38460;53.106;7.004;2023-05-24T13:31:55;8.63;;;3.13;;
52564;SDS011;38460;53.106;7.004;2023-05-24T13:34:21;9.93;;;4.07;;
52564;SDS011;38460;53.106;7.004;2023-05-24T13:36:51;10.65;;;3.60;;
52564;SDS011;38460;53.106;7.004;2023-05-24T13:39:18;9.20;;;3.10;;
52564;SDS011;38460;53.106;7.004;2023-05-24T13:41:45;7.53;;;3.00;;
52564;SDS011;38460;53.106;7.004;2023-05-24T13:44:11;9.00;;;3.85;;
52564;SDS011;38460;53.106;7.004;2023-05-24T13:46:38;9.40;;;3.30;;
52564;SDS011;38460;53.106;7.004;2023-05-24T13:49:05;9.10;;;3.63;;
52564;SDS011;38460;53.106;7.004;2023-05-24T13:51:31;9.27;;;3.15;;
52564;SDS011;38460;53.106;7.004;2023-05-24T13:53:57;9.02;;;3.83;;
52564;SDS011;38460;53.106;7.004;2023-05-24T13:56:23;9.65;;;3.05;;
52564;SDS011;38460;53.106;7.004;2023-05-24T13:58:52;9.15;;;3.75;;
52564;SDS011;38460;53.106;7.004;2023-05-24T14:01:18;9.50;;;4.45;;
52564;SDS011;38460;53.106;7.004;2023-05-24T14:03:43;10.40;;;3.63;;
52564;SDS011;38460;53.106;7.004;2023-05-24T14:06:09;11.00;;;3.83;;
52564;SDS011;38460;53.106;7.004;2023-05-24T14:08:35;10.20;;;3.45;;
52564;SDS011;38460;53.106;7.004;2023-05-24T14:11:01;10.77;;;3.63;;
52564;SDS011;38460;53.106;7.004;2023-05-24T14:13:27;13.50;;;3.90;;
52564;SDS011;38460;53.106;7.004;2023-05-24T14:15:52;6.45;;;3.33;;
52564;SDS011;38460;53.106;7.004;2023-05-24T14:18:18;10.18;;;4.07;;
52564;SDS011;38460;53.106;7.004;2023-05-24T14:20:44;8.23;;;4.10;;
52564;SDS011;38460;53.106;7.004;2023-05-24T14:23:10;9.55;;;3.53;;
52564;SDS011;38460;53.106;7.004;2023-05-24T14:25:35;11.15;;;4.05;;
52564;SDS011;38460;53.106;7.004;2023-05-24T14:28:01;11.52;;;3.55;;
52564;SDS011;38460;53.106;7.004;2023-05-24T14:30:32;8.55;;;3.90;;
52564;SDS011;38460;53.106;7.004;2023-05-24T14:32:58;13.07;;;3.95;;
52564;SDS011;38460;53.106;7.004;2023-05-24T14:35:26;11.93;;;3.35;;
52564;SDS011;38460;53.106;7.004;2023-05-24T14:37:52;9.73;;;3.75;;
52564;SDS011;38460;53.106;7.004;2023-05-24T14:40:18;8.75;;;3.85;;
52564;SDS011;38460;53.106;7.004;2023-05-24T14:42:44;9.02;;;3.53;;
52564;SDS011;38460;53.106;7.004;2023-05-24T14:45:10;10.10;;;3.50;;
52564;SDS011;38460;53.106;7.004;2023-05-24T14:47:36;8.27;;;3.75;;
52564;SDS011;38460;53.106;7.004;2023-05-24T14:50:02;11.82;;;3.65;;
52564;SDS011;38460;53.106;7.004;2023-05-24T14:52:28;10.57;;;3.72;;
52564;SDS011;38460;53.106;7.004;2023-05-24T14:54:55;8.40;;;3.22;;
52564;SDS011;38460;53.106;7.004;2023-05-24T14:57:20;10.27;;;3.45;;
52564;SDS011;38460;53.106;7.004;2023-05-24T14:59:46;10.35;;;4.05;;
52564;SDS011;38460;53.106;7.004;2023-05-24T15:02:12;12.05;;;4.05;;